Time,TemperatureF,DewpointF,PressureIn,WindDirection,WindDirectionDegrees,WindSpeedMPH,WindSpeedGustMPH,Humidity,HourlyPrecipIn,Conditions,Clouds,dailyrainin,SoftwareType,DateUTC
2013-05-02 00:06:00,61.4,50.0,30.24,South,172,5.0,6.0,66,0.00,,,0.00,weatherlink.com 1.10,2013-05-02 04:06:00,
2013-05-02 00:36:00,60.4,49.0,30.25,NW,321,0.0,6.0,66,0.00,,,0.00,weatherlink.com 1.10,2013-05-02 04:36:00,
2013-05-02 00:51:00,59.8,49.0,30.25,NNE,29,2.0,14.0,67,0.00,,,0.00,weatherlink.com 1.10,2013-05-02 04:51:00,
2013-05-02 01:06:00,59.9,48.0,30.26,SE,142,3.0,9.0,66,0.00,,,0.00,weatherlink.com 1.10,2013-05-02 05:06:00,
2013-05-02 01:21:00,59.6,49.0,30.26,SSE,159,0.0,5.0,67,0.00,,,0.00,weatherlink.com 1.10,2013-05-02 05:21:00,
2013-05-02 01:36:00,59.3,49.0,30.25,ESE,120,0.0,4.0,68,0.00,,,0.00,weatherlink.com 1.10,2013-05-02 05:36:00,
2013-05-02 01:51:00,59.2,49.0,30.24,ENE,65,0.0,5.0,68,0.00,,,0.00,weatherlink.com 1.10,2013-05-02 05:51:00,
2013-05-02 02:06:00,58.8,49.0,30.24,NNW,335,0.0,10.0,69,0.00,,,0.00,weatherlink.com 1.10,2013-05-02 06:06:00,
2013-05-02 02:21:00,57.7,48.0,30.23,SSE,152,0.0,3.0,71,0.00,,,0.00,weatherlink.com 1.10,2013-05-02 06:21:00,
2013-05-02 02:36:00,57.5,48.0,30.23,SSE,164,0.0,4.0,71,0.00,,,0.00,weatherlink.com 1.10,2013-05-02 06:36:00,
2013-05-02 02:51:00,57.2,49.0,30.23,SE,145,5.0,9.0,73,0.00,,,0.00,weatherlink.com 1.10,2013-05-02 06:51:00,
2013-05-02 03:06:00,56.8,48.0,30.22,East,95,0.0,2.0,73,0.00,,,0.00,weatherlink.com 1.10,2013-05-02 07:06:00,
2013-05-02 03:22:00,56.0,49.0,30.22,North,351,0.0,1.0,76,0.00,,,0.00,weatherlink.com 1.10,2013-05-02 07:22:00,
2013-05-02 03:37:00,55.0,48.0,30.21,NNE,30,0.0,1.0,77,0.00,,,0.00,weatherlink.com 1.10,2013-05-02 07:37:00,
2013-05-02 03:52:00,54.1,48.0,30.21,NNE,30,0.0,1.0,80,0.00,,,0.00,weatherlink.com 1.10,2013-05-02 07:52:00,
2013-05-02 04:07:00,53.4,48.0,30.22,NNE,30,0.0,1.0,81,0.00,,,0.00,weatherlink.com 1.10,2013-05-02 08:07:00,
2013-05-02 04:22:00,52.7,48.0,30.22,NNE,30,0.0,1.0,83,0.00,,,0.00,weatherlink.com 1.10,2013-05-02 08:22:00,
2013-05-02 04:37:00,52.5,48.0,30.22,NNE,30,0.0,1.0,84,0.00,,,0.00,weatherlink.com 1.10,2013-05-02 08:37:00,
2013-05-02 04:52:00,52.2,48.0,30.22,NNE,30,0.0,1.0,85,0.00,,,0.00,weatherlink.com 1.10,2013-05-02 08:52:00,
2013-05-02 05:07:00,52.2,48.0,30.22,NNE,30,0.0,1.0,85,0.00,,,0.00,weatherlink.com 1.10,2013-05-02 09:07:00,
2013-05-02 05:22:00,52.3,48.0,30.22,NNE,30,1.0,1.0,85,0.00,,,0.00,weatherlink.com 1.10,2013-05-02 09:22:00,
2013-05-02 05:37:00,52.1,48.0,30.22,NNE,30,0.0,1.0,86,0.00,,,0.00,weatherlink.com 1.10,2013-05-02 09:37:00,
2013-05-02 05:52:00,51.8,48.0,30.21,NNE,30,0.0,1.0,86,0.00,,,0.00,weatherlink.com 1.10,2013-05-02 09:52:00,
2013-05-02 06:07:00,52.0,48.0,30.22,NNE,30,1.0,1.0,87,0.00,,,0.00,weatherlink.com 1.10,2013-05-02 10:07:00,
2013-05-02 06:22:00,52.1,49.0,30.23,NNE,30,1.0,1.0,89,0.00,,,0.00,weatherlink.com 1.10,2013-05-02 10:22:00,
2013-05-02 06:37:00,52.8,49.0,30.23,NE,37,1.0,3.0,87,0.00,,,0.00,weatherlink.com 1.10,2013-05-02 10:37:00,
2013-05-02 06:52:00,52.9,49.0,30.23,NE,44,0.0,3.0,87,0.00,,,0.00,weatherlink.com 1.10,2013-05-02 10:52:00,
2013-05-02 07:07:00,53.4,50.0,30.23,NE,37,0.0,1.0,88,0.00,,,0.00,weatherlink.com 1.10,2013-05-02 11:07:00,
2013-05-02 07:22:00,54.0,50.0,30.24,WNW,303,0.0,2.0,87,0.00,,,0.00,weatherlink.com 1.10,2013-05-02 11:22:00,
2013-05-02 07:37:00,54.5,50.0,30.24,NW,317,0.0,2.0,86,0.00,,,0.00,weatherlink.com 1.10,2013-05-02 11:37:00,
2013-05-02 07:52:00,54.9,51.0,30.25,NNE,33,0.0,3.0,86,0.00,,,0.00,weatherlink.com 1.10,2013-05-02 11:52:00,
2013-05-02 08:07:00,55.2,51.0,30.25,North,354,1.0,3.0,86,0.00,,,0.00,weatherlink.com 1.10,2013-05-02 12:07:00,
2013-05-02 08:22:00,55.9,51.0,30.25,NE,37,3.0,3.0,84,0.00,,,0.00,weatherlink.com 1.10,2013-05-02 12:22:00,
2013-05-02 08:37:00,56.5,51.0,30.25,North,355,1.0,4.0,83,0.00,,,0.00,weatherlink.com 1.10,2013-05-02 12:37:00,
2013-05-02 08:52:00,57.3,52.0,30.25,NNW,329,1.0,3.0,82,0.00,,,0.00,weatherlink.com 1.10,2013-05-02 12:52:00,
2013-05-02 09:07:00,57.8,52.0,30.25,North,11,2.0,5.0,80,0.00,,,0.00,weatherlink.com 1.10,2013-05-02 13:07:00,
2013-05-02 09:22:00,59.0,53.0,30.25,NE,44,2.0,6.0,79,0.00,,,0.00,weatherlink.com 1.10,2013-05-02 13:22:00,
2013-05-02 09:37:00,60.8,53.0,30.25,South,172,0.0,3.0,76,0.00,,,0.00,weatherlink.com 1.10,2013-05-02 13:37:00,
2013-05-02 09:52:00,61.7,53.0,30.25,ENE,66,0.0,5.0,74,0.00,,,0.00,weatherlink.com 1.10,2013-05-02 13:52:00,
2013-05-02 10:07:00,62.5,54.0,30.25,SSE,155,3.0,4.0,74,0.00,,,0.00,weatherlink.com 1.10,2013-05-02 14:07:00,
2013-05-02 10:22:00,63.5,54.0,30.25,ESE,111,2.0,10.0,71,0.00,,,0.00,weatherlink.com 1.10,2013-05-02 14:22:00,
2013-05-02 10:37:00,64.1,54.0,30.26,NE,47,4.0,5.0,70,0.00,,,0.00,weatherlink.com 1.10,2013-05-02 14:37:00,
2013-05-02 10:53:00,64.5,54.0,30.26,ENE,75,1.0,5.0,69,0.00,,,0.00,weatherlink.com 1.10,2013-05-02 14:53:00,
2013-05-02 11:08:00,65.2,56.0,30.26,WSW,249,1.0,8.0,71,0.00,,,0.00,weatherlink.com 1.10,2013-05-02 15:08:00,
2013-05-02 11:23:00,66.1,53.0,30.27,SSE,158,5.0,10.0,64,0.00,,,0.00,weatherlink.com 1.10,2013-05-02 15:23:00,
2013-05-02 11:38:00,65.8,54.0,30.27,South,174,4.0,11.0,66,0.00,,,0.00,weatherlink.com 1.10,2013-05-02 15:38:00,
2013-05-02 11:53:00,66.4,54.0,30.27,South,182,4.0,12.0,64,0.00,,,0.00,weatherlink.com 1.10,2013-05-02 15:53:00,
2013-05-02 12:08:00,68.2,53.0,30.26,SSW,200,9.0,16.0,59,0.00,,,0.00,weatherlink.com 1.10,2013-05-02 16:08:00,
2013-05-02 12:23:00,69.0,55.0,30.26,SE,139,2.0,18.0,61,0.00,,,0.00,weatherlink.com 1.10,2013-05-02 16:23:00,
2013-05-02 12:38:00,69.7,54.0,30.25,SSW,197,9.0,9.0,58,0.00,,,0.00,weatherlink.com 1.10,2013-05-02 16:38:00,
2013-05-02 13:08:00,70.2,54.0,30.24,SW,232,0.0,11.0,57,0.00,,,0.00,weatherlink.com 1.10,2013-05-02 17:08:00,
2013-05-02 13:23:00,69.9,53.0,30.24,WSW,243,2.0,8.0,56,0.00,,,0.00,weatherlink.com 1.10,2013-05-02 17:23:00,
2013-05-02 13:38:00,70.4,54.0,30.24,West,270,1.0,8.0,57,0.00,,,0.00,weatherlink.com 1.10,2013-05-02 17:38:00,
2013-05-02 13:53:00,71.4,54.0,30.23,SSW,195,4.0,9.0,54,0.00,,,0.00,weatherlink.com 1.10,2013-05-02 17:53:00,
2013-05-02 14:08:00,70.5,53.0,30.24,SE,134,5.0,17.0,54,0.00,,,0.00,weatherlink.com 1.10,2013-05-02 18:08:00,
2013-05-02 14:23:00,69.6,54.0,30.23,SSE,167,3.0,15.0,57,0.00,,,0.00,weatherlink.com 1.10,2013-05-02 18:23:00,
2013-05-02 14:38:00,70.1,53.0,30.23,SW,215,8.0,12.0,55,0.00,,,0.00,weatherlink.com 1.10,2013-05-02 18:38:00,
2013-05-02 14:53:00,71.1,53.0,30.23,ESE,108,3.0,10.0,53,0.00,,,0.00,weatherlink.com 1.10,2013-05-02 18:53:00,
2013-05-02 15:08:00,71.2,54.0,30.22,South,179,1.0,14.0,55,0.00,,,0.00,weatherlink.com 1.10,2013-05-02 19:08:00,
2013-05-02 15:23:00,71.2,54.0,30.22,ESE,121,6.0,14.0,55,0.00,,,0.00,weatherlink.com 1.10,2013-05-02 19:23:00,
2013-05-02 15:38:00,70.4,53.0,30.21,SW,225,3.0,11.0,55,0.00,,,0.00,weatherlink.com 1.10,2013-05-02 19:38:00,
2013-05-02 15:53:00,71.1,54.0,30.21,SSW,212,3.0,12.0,56,0.00,,,0.00,weatherlink.com 1.10,2013-05-02 19:53:00,
2013-05-02 16:08:00,70.8,52.0,30.20,NNE,13,6.0,11.0,52,0.00,,,0.00,weatherlink.com 1.10,2013-05-02 20:08:00,
2013-05-02 16:23:00,71.7,54.0,30.20,ENE,74,1.0,12.0,53,0.00,,,0.00,weatherlink.com 1.10,2013-05-02 20:23:00,
2013-05-02 16:38:00,71.0,53.0,30.19,SE,126,1.0,11.0,53,0.00,,,0.00,weatherlink.com 1.10,2013-05-02 20:38:00,
2013-05-02 16:53:00,71.0,53.0,30.19,East,97,1.0,6.0,54,0.00,,,0.00,weatherlink.com 1.10,2013-05-02 20:53:00,
2013-05-02 17:08:00,71.4,54.0,30.18,NE,41,3.0,7.0,54,0.00,,,0.00,weatherlink.com 1.10,2013-05-02 21:08:00,
2013-05-02 17:23:00,71.1,53.0,30.18,SE,127,2.0,9.0,53,0.00,,,0.00,weatherlink.com 1.10,2013-05-02 21:23:00,
2013-05-02 17:38:00,70.6,53.0,30.18,SW,225,5.0,6.0,54,0.00,,,0.00,weatherlink.com 1.10,2013-05-02 21:38:00,
2013-05-02 17:53:00,70.3,54.0,30.18,SSE,165,1.0,5.0,56,0.00,,,0.00,weatherlink.com 1.10,2013-05-02 21:53:00,
2013-05-02 18:08:00,70.1,54.0,30.17,SSE,157,6.0,9.0,56,0.00,,,0.00,weatherlink.com 1.10,2013-05-02 22:08:00,
2013-05-02 18:23:00,70.1,54.0,30.17,East,95,5.0,7.0,57,0.00,,,0.00,weatherlink.com 1.10,2013-05-02 22:23:00,
2013-05-02 18:38:00,69.7,54.0,30.16,South,177,4.0,7.0,58,0.00,,,0.00,weatherlink.com 1.10,2013-05-02 22:38:00,
2013-05-02 18:53:00,69.2,54.0,30.17,ESE,120,3.0,9.0,58,0.00,,,0.00,weatherlink.com 1.10,2013-05-02 22:53:00,
2013-05-02 19:08:00,68.6,54.0,30.17,SE,131,2.0,5.0,59,0.00,,,0.00,weatherlink.com 1.10,2013-05-02 23:08:00,
2013-05-02 19:23:00,68.2,54.0,30.17,NNE,19,2.0,5.0,60,0.00,,,0.00,weatherlink.com 1.10,2013-05-02 23:23:00,
2013-05-02 19:38:00,67.6,54.0,30.17,SE,124,0.0,5.0,61,0.00,,,0.00,weatherlink.com 1.10,2013-05-02 23:38:00,
2013-05-02 19:53:00,67.0,53.0,30.17,SSE,153,0.0,4.0,62,0.00,,,0.00,weatherlink.com 1.10,2013-05-02 23:53:00,
2013-05-02 20:08:00,66.3,53.0,30.18,SE,131,0.0,4.0,63,0.00,,,0.00,weatherlink.com 1.10,2013-05-03 00:08:00,
2013-05-02 20:23:00,65.7,53.0,30.18,SE,145,1.0,5.0,64,0.00,,,0.00,weatherlink.com 1.10,2013-05-03 00:23:00,
2013-05-02 20:38:00,65.0,53.0,30.18,SSE,148,0.0,3.0,66,0.00,,,0.00,weatherlink.com 1.10,2013-05-03 00:38:00,
2013-05-02 20:53:00,64.4,53.0,30.19,NE,37,0.0,3.0,67,0.00,,,0.00,weatherlink.com 1.10,2013-05-03 00:53:00,
2013-05-02 21:08:00,63.4,53.0,30.19,NE,36,1.0,4.0,69,0.00,,,0.00,weatherlink.com 1.10,2013-05-03 01:08:00,
2013-05-02 21:23:00,62.9,53.0,30.20,NNE,13,0.0,2.0,70,0.00,,,0.00,weatherlink.com 1.10,2013-05-03 01:23:00,
2013-05-02 21:38:00,62.3,53.0,30.20,SE,124,5.0,5.0,71,0.00,,,0.00,weatherlink.com 1.10,2013-05-03 01:38:00,
2013-05-02 21:53:00,61.9,53.0,30.20,SE,131,0.0,4.0,72,0.00,,,0.00,weatherlink.com 1.10,2013-05-03 01:53:00,
2013-05-02 22:08:00,61.3,53.0,30.20,SE,145,0.0,2.0,73,0.00,,,0.00,weatherlink.com 1.10,2013-05-03 02:08:00,
2013-05-02 22:23:00,61.1,52.0,30.21,South,191,2.0,8.0,72,0.00,,,0.00,weatherlink.com 1.10,2013-05-03 02:23:00,
2013-05-02 22:39:00,60.6,52.0,30.21,ESE,115,0.0,3.0,74,0.00,,,0.00,weatherlink.com 1.10,2013-05-03 02:39:00,
2013-05-02 22:54:00,60.0,52.0,30.21,SE,139,0.0,1.0,75,0.00,,,0.00,weatherlink.com 1.10,2013-05-03 02:54:00,
2013-05-02 23:09:00,59.7,52.0,30.21,ESE,122,0.0,1.0,75,0.00,,,0.00,weatherlink.com 1.10,2013-05-03 03:09:00,
2013-05-02 23:24:00,59.0,52.0,30.20,ESE,121,0.0,1.0,77,0.00,,,0.00,weatherlink.com 1.10,2013-05-03 03:24:00,
2013-05-02 23:39:00,58.7,52.0,30.20,SSE,150,0.0,1.0,77,0.00,,,0.00,weatherlink.com 1.10,2013-05-03 03:39:00,
2013-05-02 23:54:00,58.0,51.0,30.20,SE,134,0.0,1.0,78,0.00,,,0.00,weatherlink.com 1.10,2013-05-03 03:54:00,